sensor_id;sensor_type;location;lat;lon;timestamp;temperature;humidity
2465;DHT22;1244;54.326;10.074;2022-07-18T00:01:33;15.90;99.90
2465;DHT22;1244;54.326;10.074;2022-07-18T00:04:01;15.90;99.90
2465;DHT22;1244;54.326;10.074;2022-07-18T00:06:27;15.90;99.90
2465;DHT22;1244;54.326;10.074;2022-07-18T00:08:53;15.90;99.90
2465;DHT22;1244;54.326;10.074;2022-07-18T00:11:19;15.80;99.90
2465;DHT22;1244;54.326;10.074;2022-07-18T00:13:44;15.80;99.90
2465;DHT22;1244;54.326;10.074;2022-07-18T00:16:10;15.70;99.90
2465;DHT22;1244;54.326;10.074;2022-07-18T00:18:36;15.70;99.90
2465;DHT22;1244;54.326;10.074;2022-07-18T00:21:01;15.70;99.90
2465;DHT22;1244;54.326;10.074;2022-07-18T00:23:27;15.70;99.90
2465;DHT22;1244;54.326;10.074;2022-07-18T00:25:52;15.70;99.90
2465;DHT22;1244;54.326;10.074;2022-07-18T00:28:19;15.50;99.90
2465;DHT22;1244;54.326;10.074;2022-07-18T00:30:44;15.40;99.90
2465;DHT22;1244;54.326;10.074;2022-07-18T00:33:10;15.40;99.90
2465;DHT22;1244;54.326;10.074;2022-07-18T00:35:35;15.30;99.90
2465;DHT22;1244;54.326;10.074;2022-07-18T00:38:02;15.40;99.90
2465;DHT22;1244;54.326;10.074;2022-07-18T00:40:28;15.30;99.90
2465;DHT22;1244;54.326;10.074;2022-07-18T00:42:53;15.30;99.90
2465;DHT22;1244;54.326;10.074;2022-07-18T00:45:19;15.30;99.90
2465;DHT22;1244;54.326;10.074;2022-07-18T00:47:45;15.40;99.90
2465;DHT22;1244;54.326;10.074;2022-07-18T00:50:11;15.40;99.90
2465;DHT22;1244;54.326;10.074;2022-07-18T00:52:36;15.50;99.90
2465;DHT22;1244;54.326;10.074;2022-07-18T00:55:05;15.50;99.90
2465;DHT22;1244;54.326;10.074;2022-07-18T00:57:30;15.60;99.90
2465;DHT22;1244;54.326;10.074;2022-07-18T00:59:56;15.60;99.90
2465;DHT22;1244;54.326;10.074;2022-07-18T01:02:40;15.50;99.90
2465;DHT22;1244;54.326;10.074;2022-07-18T01:05:07;15.50;99.90
2465;DHT22;1244;54.326;10.074;2022-07-18T01:07:37;15.50;99.90
2465;DHT22;1244;54.326;10.074;2022-07-18T01:10:04;15.50;99.90
2465;DHT22;1244;54.326;10.074;2022-07-18T01:12:30;15.40;99.90
2465;DHT22;1244;54.326;10.074;2022-07-18T01:14:57;15.30;99.90
2465;DHT22;1244;54.326;10.074;2022-07-18T01:17:23;15.30;99.90
2465;DHT22;1244;54.326;10.074;2022-07-18T01:19:48;15.30;99.90
2465;DHT22;1244;54.326;10.074;2022-07-18T01:22:16;15.30;99.90
2465;DHT22;1244;54.326;10.074;2022-07-18T01:24:42;15.20;99.90
2465;DHT22;1244;54.326;10.074;2022-07-18T01:27:08;15.40;99.90
2465;DHT22;1244;54.326;10.074;2022-07-18T01:29:34;15.30;99.90
2465;DHT22;1244;54.326;10.074;2022-07-18T01:32:06;15.30;99.90
2465;DHT22;1244;54.326;10.074;2022-07-18T01:34:32;15.50;99.90
2465;DHT22;1244;54.326;10.074;2022-07-18T01:36:59;15.60;99.90
2465;DHT22;1244;54.326;10.074;2022-07-18T01:39:24;15.50;99.90
2465;DHT22;1244;54.326;10.074;2022-07-18T01:42:01;15.60;99.90
2465;DHT22;1244;54.326;10.074;2022-07-18T01:44:28;15.50;99.90
2465;DHT22;1244;54.326;10.074;2022-07-18T01:46:54;15.50;99.90
2465;DHT22;1244;54.326;10.074;2022-07-18T01:49:20;15.60;99.90
2465;DHT22;1244;54.326;10.074;2022-07-18T01:51:46;15.60;99.90
2465;DHT22;1244;54.326;10.074;2022-07-18T01:54:12;15.60;99.90
2465;DHT22;1244;54.326;10.074;2022-07-18T01:56:37;15.60;99.90
2465;DHT22;1244;54.326;10.074;2022-07-18T01:59:03;15.40;99.90
2465;DHT22;1244;54.326;10.074;2022-07-18T02:01:29;15.60;99.90
2465;DHT22;1244;54.326;10.074;2022-07-18T02:03:54;15.60;99.90
2465;DHT22;1244;54.326;10.074;2022-07-18T02:06:20;15.60;99.90
2465;DHT22;1244;54.326;10.074;2022-07-18T02:08:45;15.60;99.90
2465;DHT22;1244;54.326;10.074;2022-07-18T02:11:11;15.60;99.90
2465;DHT22;1244;54.326;10.074;2022-07-18T02:13:37;15.60;99.90
2465;DHT22;1244;54.326;10.074;2022-07-18T02:16:02;15.60;99.90
2465;DHT22;1244;54.326;10.074;2022-07-18T02:18:28;15.60;99.90
2465;DHT22;1244;54.326;10.074;2022-07-18T02:20:57;15.60;99.90
2465;DHT22;1244;54.326;10.074;2022-07-18T02:23:23;15.60;99.90
2465;DHT22;1244;54.326;10.074;2022-07-18T02:25:49;15.50;99.90
2465;DHT22;1244;54.326;10.074;2022-07-18T02:28:14;15.50;99.90
2465;DHT22;1244;54.326;10.074;2022-07-18T02:30:40;15.50;99.90
2465;DHT22;1244;54.326;10.074;2022-07-18T02:33:05;15.60;99.90
2465;DHT22;1244;54.326;10.074;2022-07-18T02:35:31;15.60;99.90
2465;DHT22;1244;54.326;10.074;2022-07-18T02:37:56;15.50;99.90
2465;DHT22;1244;54.326;10.074;2022-07-18T02:40:22;15.50;99.90
2465;DHT22;1244;54.326;10.074;2022-07-18T02:42:48;15.50;99.90
2465;DHT22;1244;54.326;10.074;2022-07-18T02:45:13;15.40;99.90
2465;DHT22;1244;54.326;10.074;2022-07-18T02:47:39;15.50;99.90
2465;DHT22;1244;54.326;10.074;2022-07-18T02:50:05;15.50;99.90
2465;DHT22;1244;54.326;10.074;2022-07-18T02:52:31;15.40;99.90
2465;DHT22;1244;54.326;10.074;2022-07-18T02:54:57;15.40;99.90
2465;DHT22;1244;54.326;10.074;2022-07-18T02:57:23;15.30;99.90
2465;DHT22;1244;54.326;10.074;2022-07-18T02:59:49;15.30;99.90
2465;DHT22;1244;54.326;10.074;2022-07-18T03:02:14;15.20;99.90
2465;DHT22;1244;54.326;10.074;2022-07-18T03:04:39;15.20;99.90
2465;DHT22;1244;54.326;10.074;2022-07-18T03:07:05;15.20;99.90
2465;DHT22;1244;54.326;10.074;2022-07-18T03:09:30;15.20;99.90
2465;DHT22;1244;54.326;10.074;2022-07-18T03:11:56;15.20;99.90
2465;DHT22;1244;54.326;10.074;2022-07-18T03:14:23;15.20;99.90
2465;DHT22;1244;54.326;10.074;2022-07-18T03:16:48;15.20;99.90
2465;DHT22;1244;54.326;10.074;2022-07-18T03:19:14;15.30;99.90
2465;DHT22;1244;54.326;10.074;2022-07-18T03:21:39;15.30;99.90
2465;DHT22;1244;54.326;10.074;2022-07-18T03:24:05;15.30;99.90
2465;DHT22;1244;54.326;10.074;2022-07-18T03:26:31;15.20;99.90
2465;DHT22;1244;54.326;10.074;2022-07-18T03:28:56;15.20;99.90
2465;DHT22;1244;54.326;10.074;2022-07-18T03:31:23;15.20;99.90
2465;DHT22;1244;54.326;10.074;2022-07-18T03:33:48;15.20;99.90
2465;DHT22;1244;54.326;10.074;2022-07-18T03:36:14;15.30;99.90
2465;DHT22;1244;54.326;10.074;2022-07-18T03:38:39;15.20;99.90
2465;DHT22;1244;54.326;10.074;2022-07-18T03:41:09;15.30;99.90
2465;DHT22;1244;54.326;10.074;2022-07-18T03:43:36;15.40;99.90
2465;DHT22;1244;54.326;10.074;2022-07-18T03:46:02;15.40;99.90
2465;DHT22;1244;54.326;10.074;2022-07-18T03:48:28;15.40;99.90
2465;DHT22;1244;54.326;10.074;2022-07-18T03:50:54;15.40;99.90
2465;DHT22;1244;54.326;10.074;2022-07-18T03:53:19;15.30;99.90
2465;DHT22;1244;54.326;10.074;2022-07-18T03:55:45;15.40;99.90
2465;DHT22;1244;54.326;10.074;2022-07-18T03:58:11;15.50;99.90
2465;DHT22;1244;54.326;10.074;2022-07-18T04:00:36;15.50;99.90
2465;DHT22;1244;54.326;10.074;2022-07-18T04:03:02;15.50;99.90
2465;DHT22;1244;54.326;10.074;2022-07-18T04:05:27;15.50;99.90
2465;DHT22;1244;54.326;10.074;2022-07-18T04:07:53;15.50;99.90
2465;DHT22;1244;54.326;10.074;2022-07-18T04:10:18;15.50;99.90
2465;DHT22;1244;54.326;10.074;2022-07-18T04:12:52;15.60;99.90
2465;DHT22;1244;54.326;10.074;2022-07-18T04:15:19;15.60;99.90
2465;DHT22;1244;54.326;10.074;2022-07-18T04:17:45;15.70;99.90
2465;DHT22;1244;54.326;10.074;2022-07-18T04:20:12;15.60;99.90
2465;DHT22;1244;54.326;10.074;2022-07-18T04:22:49;15.70;99.90
2465;DHT22;1244;54.326;10.074;2022-07-18T04:25:16;15.70;99.90
2465;DHT22;1244;54.326;10.074;2022-07-18T04:27:42;15.80;99.90
2465;DHT22;1244;54.326;10.074;2022-07-18T04:30:08;15.80;99.90
2465;DHT22;1244;54.326;10.074;2022-07-18T04:32:33;15.80;99.90
2465;DHT22;1244;54.326;10.074;2022-07-18T04:34:59;15.80;99.90
2465;DHT22;1244;54.326;10.074;2022-07-18T04:37:24;15.90;99.90
2465;DHT22;1244;54.326;10.074;2022-07-18T04:39:50;15.90;99.90
2465;DHT22;1244;54.326;10.074;2022-07-18T04:42:15;15.90;99.90
2465;DHT22;1244;54.326;10.074;2022-07-18T04:44:41;15.90;99.90
2465;DHT22;1244;54.326;10.074;2022-07-18T04:47:06;15.90;99.90
2465;DHT22;1244;54.326;10.074;2022-07-18T04:49:32;16.00;99.90
2465;DHT22;1244;54.326;10.074;2022-07-18T04:51:57;16.00;99.90
2465;DHT22;1244;54.326;10.074;2022-07-18T04:54:23;15.90;99.90
2465;DHT22;1244;54.326;10.074;2022-07-18T04:56:48;16.00;99.90
2465;DHT22;1244;54.326;10.074;2022-07-18T04:59:14;16.00;99.90
2465;DHT22;1244;54.326;10.074;2022-07-18T05:01:40;16.10;99.90
2465;DHT22;1244;54.326;10.074;2022-07-18T05:04:05;16.10;99.90
2465;DHT22;1244;54.326;10.074;2022-07-18T05:06:31;16.10;99.90
2465;DHT22;1244;54.326;10.074;2022-07-18T05:08:57;16.20;99.90
2465;DHT22;1244;54.326;10.074;2022-07-18T05:11:22;16.30;99.90
2465;DHT22;1244;54.326;10.074;2022-07-18T05:13:47;16.40;99.90
2465;DHT22;1244;54.326;10.074;2022-07-18T05:16:13;16.50;99.90
2465;DHT22;1244;54.326;10.074;2022-07-18T05:18:39;16.50;99.90
2465;DHT22;1244;54.326;10.074;2022-07-18T05:21:04;16.60;99.90
2465;DHT22;1244;54.326;10.074;2022-07-18T05:23:30;16.60;99.90
2465;DHT22;1244;54.326;10.074;2022-07-18T05:25:55;16.60;99.90
2465;DHT22;1244;54.326;10.074;2022-07-18T05:28:21;16.50;99.90
2465;DHT22;1244;54.326;10.074;2022-07-18T05:30:46;16.60;99.90
2465;DHT22;1244;54.326;10.074;2022-07-18T05:33:12;16.70;99.90
2465;DHT22;1244;54.326;10.074;2022-07-18T05:35:38;16.70;99.90
2465;DHT22;1244;54.326;10.074;2022-07-18T05:38:03;16.80;99.90
2465;DHT22;1244;54.326;10.074;2022-07-18T05:40:29;16.80;99.90
2465;DHT22;1244;54.326;10.074;2022-07-18T05:42:54;16.70;99.90
2465;DHT22;1244;54.326;10.074;2022-07-18T05:45:21;16.70;99.90
2465;DHT22;1244;54.326;10.074;2022-07-18T05:47:48;16.80;99.90
2465;DHT22;1244;54.326;10.074;2022-07-18T05:50:13;16.80;99.90
2465;DHT22;1244;54.326;10.074;2022-07-18T05:52:39;16.80;99.90
2465;DHT22;1244;54.326;10.074;2022-07-18T05:55:05;16.80;99.90
2465;DHT22;1244;54.326;10.074;2022-07-18T05:57:31;16.70;99.90
2465;DHT22;1244;54.326;10.074;2022-07-18T05:59:56;16.70;99.90
2465;DHT22;1244;54.326;10.074;2022-07-18T06:02:22;16.70;99.90
2465;DHT22;1244;54.326;10.074;2022-07-18T06:04:48;16.70;99.90
2465;DHT22;1244;54.326;10.074;2022-07-18T06:07:13;16.70;99.90
2465;DHT22;1244;54.326;10.074;2022-07-18T06:09:39;16.60;99.90
2465;DHT22;1244;54.326;10.074;2022-07-18T06:12:04;16.70;99.90
2465;DHT22;1244;54.326;10.074;2022-07-18T06:14:30;16.80;99.90
2465;DHT22;1244;54.326;10.074;2022-07-18T06:16:57;16.90;99.90
2465;DHT22;1244;54.326;10.074;2022-07-18T06:19:23;17.00;99.90
2465;DHT22;1244;54.326;10.074;2022-07-18T06:21:50;17.00;99.90
2465;DHT22;1244;54.326;10.074;2022-07-18T06:24:15;17.10;99.90
2465;DHT22;1244;54.326;10.074;2022-07-18T06:26:41;17.20;99.90
2465;DHT22;1244;54.326;10.074;2022-07-18T06:29:07;17.30;99.90
2465;DHT22;1244;54.326;10.074;2022-07-18T06:31:32;17.40;99.90
2465;DHT22;1244;54.326;10.074;2022-07-18T06:33:59;17.40;99.90
2465;DHT22;1244;54.326;10.074;2022-07-18T06:36:25;17.50;99.90
2465;DHT22;1244;54.326;10.074;2022-07-18T06:38:51;17.40;99.90
2465;DHT22;1244;54.326;10.074;2022-07-18T06:41:17;17.50;99.90
2465;DHT22;1244;54.326;10.074;2022-07-18T06:43:43;17.60;99.90
2465;DHT22;1244;54.326;10.074;2022-07-18T06:46:08;17.60;99.90
2465;DHT22;1244;54.326;10.074;2022-07-18T06:48:34;17.70;99.90
2465;DHT22;1244;54.326;10.074;2022-07-18T06:51:01;17.60;99.90
2465;DHT22;1244;54.326;10.074;2022-07-18T06:53:27;17.60;99.90
2465;DHT22;1244;54.326;10.074;2022-07-18T06:55:54;17.70;99.90
2465;DHT22;1244;54.326;10.074;2022-07-18T06:58:19;17.80;99.90
2465;DHT22;1244;54.326;10.074;2022-07-18T07:00:45;17.80;99.90
2465;DHT22;1244;54.326;10.074;2022-07-18T07:03:10;17.90;99.90
2465;DHT22;1244;54.326;10.074;2022-07-18T07:05:36;18.00;99.90
2465;DHT22;1244;54.326;10.074;2022-07-18T07:08:01;18.10;99.90
2465;DHT22;1244;54.326;10.074;2022-07-18T07:10:27;18.10;99.90
2465;DHT22;1244;54.326;10.074;2022-07-18T07:12:52;18.40;99.90
2465;DHT22;1244;54.326;10.074;2022-07-18T07:15:20;18.50;99.90
2465;DHT22;1244;54.326;10.074;2022-07-18T07:17:46;18.70;99.90
2465;DHT22;1244;54.326;10.074;2022-07-18T07:20:12;18.90;99.90
2465;DHT22;1244;54.326;10.074;2022-07-18T07:22:52;19.00;99.90
2465;DHT22;1244;54.326;10.074;2022-07-18T07:25:19;19.10;99.90
2465;DHT22;1244;54.326;10.074;2022-07-18T07:27:45;19.30;99.90
2465;DHT22;1244;54.326;10.074;2022-07-18T07:30:12;19.50;99.90
2465;DHT22;1244;54.326;10.074;2022-07-18T07:32:41;19.50;99.90
2465;DHT22;1244;54.326;10.074;2022-07-18T07:35:08;19.40;99.90
2465;DHT22;1244;54.326;10.074;2022-07-18T07:37:37;19.40;99.90
2465;DHT22;1244;54.326;10.074;2022-07-18T07:40:03;19.40;99.90
2465;DHT22;1244;54.326;10.074;2022-07-18T07:42:29;19.60;99.90
2465;DHT22;1244;54.326;10.074;2022-07-18T07:44:55;19.60;99.90
2465;DHT22;1244;54.326;10.074;2022-07-18T07:47:20;19.70;99.90
2465;DHT22;1244;54.326;10.074;2022-07-18T07:49:46;19.90;99.90
2465;DHT22;1244;54.326;10.074;2022-07-18T07:52:11;20.00;99.90
2465;DHT22;1244;54.326;10.074;2022-07-18T07:54:39;19.90;99.90
2465;DHT22;1244;54.326;10.074;2022-07-18T07:57:04;19.80;99.90
2465;DHT22;1244;54.326;10.074;2022-07-18T07:59:30;20.10;99.90
2465;DHT22;1244;54.326;10.074;2022-07-18T08:01:57;20.40;99.90
2465;DHT22;1244;54.326;10.074;2022-07-18T08:04:23;20.90;99.90
2465;DHT22;1244;54.326;10.074;2022-07-18T08:06:49;21.20;99.90
2465;DHT22;1244;54.326;10.074;2022-07-18T08:09:14;21.00;99.90
2465;DHT22;1244;54.326;10.074;2022-07-18T08:11:40;20.80;99.90
2465;DHT22;1244;54.326;10.074;2022-07-18T08:14:05;20.60;99.90
2465;DHT22;1244;54.326;10.074;2022-07-18T08:16:31;20.60;99.90
2465;DHT22;1244;54.326;10.074;2022-07-18T08:18:56;20.70;99.90
2465;DHT22;1244;54.326;10.074;2022-07-18T08:21:22;20.70;99.90
2465;DHT22;1244;54.326;10.074;2022-07-18T08:23:47;20.70;99.90
2465;DHT22;1244;54.326;10.074;2022-07-18T08:26:13;20.70;99.90
2465;DHT22;1244;54.326;10.074;2022-07-18T08:28:39;20.80;99.90
2465;DHT22;1244;54.326;10.074;2022-07-18T08:31:05;20.90;99.90
2465;DHT22;1244;54.326;10.074;2022-07-18T08:33:30;20.80;99.90
2465;DHT22;1244;54.326;10.074;2022-07-18T08:35:56;21.00;99.90
2465;DHT22;1244;54.326;10.074;2022-07-18T08:38:21;21.10;99.90
2465;DHT22;1244;54.326;10.074;2022-07-18T08:40:47;21.20;99.90
2465;DHT22;1244;54.326;10.074;2022-07-18T08:43:14;21.30;99.90
2465;DHT22;1244;54.326;10.074;2022-07-18T08:45:42;21.60;99.90
2465;DHT22;1244;54.326;10.074;2022-07-18T08:48:08;21.80;99.90
2465;DHT22;1244;54.326;10.074;2022-07-18T08:50:34;22.40;99.90
2465;DHT22;1244;54.326;10.074;2022-07-18T08:53:00;22.30;99.90
2465;DHT22;1244;54.326;10.074;2022-07-18T08:55:29;22.30;99.90
2465;DHT22;1244;54.326;10.074;2022-07-18T08:57:54;22.10;99.90
2465;DHT22;1244;54.326;10.074;2022-07-18T09:00:20;22.30;99.90
2465;DHT22;1244;54.326;10.074;2022-07-18T09:02:59;22.10;99.90
2465;DHT22;1244;54.326;10.074;2022-07-18T09:05:25;22.10;99.90
2465;DHT22;1244;54.326;10.074;2022-07-18T09:07:51;22.10;99.90
2465;DHT22;1244;54.326;10.074;2022-07-18T09:10:16;22.20;99.90
2465;DHT22;1244;54.326;10.074;2022-07-18T09:12:56;22.10;99.90
2465;DHT22;1244;54.326;10.074;2022-07-18T09:15:22;22.20;99.90
2465;DHT22;1244;54.326;10.074;2022-07-18T09:17:49;22.30;99.90
2465;DHT22;1244;54.326;10.074;2022-07-18T09:20:15;22.40;99.90
2465;DHT22;1244;54.326;10.074;2022-07-18T09:22:43;22.30;99.90
2465;DHT22;1244;54.326;10.074;2022-07-18T09:25:15;22.40;99.90
2465;DHT22;1244;54.326;10.074;2022-07-18T09:27:42;22.70;99.90
2465;DHT22;1244;54.326;10.074;2022-07-18T09:35:31;23.30;99.90
2465;DHT22;1244;54.326;10.074;2022-07-18T09:38:06;23.70;99.90
2465;DHT22;1244;54.326;10.074;2022-07-18T09:40:36;23.90;99.90
2465;DHT22;1244;54.326;10.074;2022-07-18T09:43:04;23.70;99.90
2465;DHT22;1244;54.326;10.074;2022-07-18T09:45:46;23.50;99.90
2465;DHT22;1244;54.326;10.074;2022-07-18T09:48:20;23.50;99.90
2465;DHT22;1244;54.326;10.074;2022-07-18T09:50:54;23.70;99.90
2465;DHT22;1244;54.326;10.074;2022-07-18T09:53:28;23.60;99.90
2465;DHT22;1244;54.326;10.074;2022-07-18T09:55:57;23.50;99.90
2465;DHT22;1244;54.326;10.074;2022-07-18T09:58:28;23.70;99.90
2465;DHT22;1244;54.326;10.074;2022-07-18T10:00:56;24.10;99.90
2465;DHT22;1244;54.326;10.074;2022-07-18T10:03:22;24.20;99.90
2465;DHT22;1244;54.326;10.074;2022-07-18T10:05:50;24.50;99.90
2465;DHT22;1244;54.326;10.074;2022-07-18T10:08:20;24.90;99.90
2465;DHT22;1244;54.326;10.074;2022-07-18T10:10:47;24.80;99.90
2465;DHT22;1244;54.326;10.074;2022-07-18T10:13:14;24.70;99.90
2465;DHT22;1244;54.326;10.074;2022-07-18T10:15:42;24.80;99.90
2465;DHT22;1244;54.326;10.074;2022-07-18T10:18:10;24.50;99.90
2465;DHT22;1244;54.326;10.074;2022-07-18T10:23:07;24.30;99.90
2465;DHT22;1244;54.326;10.074;2022-07-18T10:25:34;24.40;99.90
2465;DHT22;1244;54.326;10.074;2022-07-18T10:28:13;24.50;99.90
2465;DHT22;1244;54.326;10.074;2022-07-18T10:30:44;24.80;99.90
2465;DHT22;1244;54.326;10.074;2022-07-18T10:33:36;25.00;99.90
2465;DHT22;1244;54.326;10.074;2022-07-18T10:38:31;25.30;99.90
2465;DHT22;1244;54.326;10.074;2022-07-18T10:41:16;25.30;99.90
2465;DHT22;1244;54.326;10.074;2022-07-18T10:43:43;25.40;99.90
2465;DHT22;1244;54.326;10.074;2022-07-18T10:46:11;25.60;99.90
2465;DHT22;1244;54.326;10.074;2022-07-18T10:51:13;25.80;99.90
2465;DHT22;1244;54.326;10.074;2022-07-18T10:56:20;26.00;99.90
2465;DHT22;1244;54.326;10.074;2022-07-18T10:58:46;26.50;99.90
2465;DHT22;1244;54.326;10.074;2022-07-18T11:01:17;26.40;99.90
2465;DHT22;1244;54.326;10.074;2022-07-18T11:03:43;27.20;99.90
2465;DHT22;1244;54.326;10.074;2022-07-18T11:06:09;27.40;99.90
2465;DHT22;1244;54.326;10.074;2022-07-18T11:08:36;26.90;99.90
2465;DHT22;1244;54.326;10.074;2022-07-18T11:16:14;27.10;99.90
2465;DHT22;1244;54.326;10.074;2022-07-18T11:21:23;27.10;99.90
2465;DHT22;1244;54.326;10.074;2022-07-18T11:26:18;26.10;99.90
2465;DHT22;1244;54.326;10.074;2022-07-18T11:28:46;26.20;99.90
2465;DHT22;1244;54.326;10.074;2022-07-18T11:31:14;26.30;99.90
2465;DHT22;1244;54.326;10.074;2022-07-18T11:33:45;25.90;99.90
2465;DHT22;1244;54.326;10.074;2022-07-18T11:36:16;25.60;99.90
2465;DHT22;1244;54.326;10.074;2022-07-18T11:38:49;25.40;99.90
2465;DHT22;1244;54.326;10.074;2022-07-18T11:41:16;25.30;99.90
2465;DHT22;1244;54.326;10.074;2022-07-18T11:43:43;25.20;99.90
2465;DHT22;1244;54.326;10.074;2022-07-18T11:46:12;24.90;99.90
2465;DHT22;1244;54.326;10.074;2022-07-18T11:48:38;24.90;99.90
2465;DHT22;1244;54.326;10.074;2022-07-18T11:51:17;24.90;99.90
2465;DHT22;1244;54.326;10.074;2022-07-18T11:53:52;25.10;99.90
2465;DHT22;1244;54.326;10.074;2022-07-18T11:56:21;25.10;99.90
2465;DHT22;1244;54.326;10.074;2022-07-18T11:58:48;24.90;99.90
2465;DHT22;1244;54.326;10.074;2022-07-18T12:01:14;24.60;99.90
2465;DHT22;1244;54.326;10.074;2022-07-18T12:03:42;24.60;99.90
2465;DHT22;1244;54.326;10.074;2022-07-18T12:06:19;24.60;99.90
2465;DHT22;1244;54.326;10.074;2022-07-18T12:08:52;24.60;99.90
2465;DHT22;1244;54.326;10.074;2022-07-18T12:11:29;24.50;99.90
2465;DHT22;1244;54.326;10.074;2022-07-18T12:13:58;24.60;99.90
2465;DHT22;1244;54.326;10.074;2022-07-18T12:16:32;24.90;99.90
2465;DHT22;1244;54.326;10.074;2022-07-18T12:18:59;25.20;99.90
2465;DHT22;1244;54.326;10.074;2022-07-18T12:21:52;25.30;99.90
2465;DHT22;1244;54.326;10.074;2022-07-18T12:24:23;25.40;99.90
2465;DHT22;1244;54.326;10.074;2022-07-18T12:27:06;25.20;99.90
2465;DHT22;1244;54.326;10.074;2022-07-18T12:32:18;24.80;99.90
2465;DHT22;1244;54.326;10.074;2022-07-18T12:35:04;24.60;99.90
2465;DHT22;1244;54.326;10.074;2022-07-18T12:37:30;24.50;99.90
2465;DHT22;1244;54.326;10.074;2022-07-18T12:39:57;24.30;99.90
2465;DHT22;1244;54.326;10.074;2022-07-18T12:42:28;24.40;99.90
2465;DHT22;1244;54.326;10.074;2022-07-18T12:44:54;24.40;99.90
2465;DHT22;1244;54.326;10.074;2022-07-18T12:47:19;24.50;99.90
2465;DHT22;1244;54.326;10.074;2022-07-18T12:49:45;24.70;99.90
2465;DHT22;1244;54.326;10.074;2022-07-18T12:52:11;24.70;99.90
2465;DHT22;1244;54.326;10.074;2022-07-18T12:54:36;25.00;99.90
2465;DHT22;1244;54.326;10.074;2022-07-18T12:57:02;25.10;99.90
2465;DHT22;1244;54.326;10.074;2022-07-18T12:59:27;25.50;99.90
2465;DHT22;1244;54.326;10.074;2022-07-18T13:01:53;25.80;99.90
2465;DHT22;1244;54.326;10.074;2022-07-18T13:04:18;26.10;99.90
2465;DHT22;1244;54.326;10.074;2022-07-18T13:06:44;26.30;99.90
2465;DHT22;1244;54.326;10.074;2022-07-18T13:09:10;26.60;99.90
2465;DHT22;1244;54.326;10.074;2022-07-18T13:11:35;27.10;99.90
2465;DHT22;1244;54.326;10.074;2022-07-18T13:14:01;27.00;99.90
2465;DHT22;1244;54.326;10.074;2022-07-18T13:16:27;27.00;99.90
2465;DHT22;1244;54.326;10.074;2022-07-18T13:18:52;27.00;99.90
2465;DHT22;1244;54.326;10.074;2022-07-18T13:21:18;27.20;99.90
2465;DHT22;1244;54.326;10.074;2022-07-18T13:23:43;27.00;99.90
2465;DHT22;1244;54.326;10.074;2022-07-18T13:26:09;27.20;99.90
2465;DHT22;1244;54.326;10.074;2022-07-18T13:28:35;27.00;99.90
2465;DHT22;1244;54.326;10.074;2022-07-18T13:31:00;26.80;99.90
2465;DHT22;1244;54.326;10.074;2022-07-18T13:33:27;27.00;99.90
2465;DHT22;1244;54.326;10.074;2022-07-18T13:35:52;27.10;99.90
2465;DHT22;1244;54.326;10.074;2022-07-18T13:38:18;27.20;99.90
2465;DHT22;1244;54.326;10.074;2022-07-18T13:40:43;27.30;99.90
2465;DHT22;1244;54.326;10.074;2022-07-18T13:43:09;27.60;99.90
2465;DHT22;1244;54.326;10.074;2022-07-18T13:45:34;28.00;99.90
2465;DHT22;1244;54.326;10.074;2022-07-18T13:48:00;28.00;99.90
2465;DHT22;1244;54.326;10.074;2022-07-18T13:50:25;27.90;99.90
2465;DHT22;1244;54.326;10.074;2022-07-18T13:52:51;28.20;99.90
2465;DHT22;1244;54.326;10.074;2022-07-18T13:55:16;27.90;99.90
2465;DHT22;1244;54.326;10.074;2022-07-18T13:57:42;28.20;99.90
2465;DHT22;1244;54.326;10.074;2022-07-18T14:00:08;28.10;99.90
2465;DHT22;1244;54.326;10.074;2022-07-18T14:02:34;28.10;99.90
2465;DHT22;1244;54.326;10.074;2022-07-18T14:05:00;28.40;99.90
2465;DHT22;1244;54.326;10.074;2022-07-18T14:07:25;28.20;99.90
2465;DHT22;1244;54.326;10.074;2022-07-18T14:09:51;28.20;99.90
2465;DHT22;1244;54.326;10.074;2022-07-18T14:12:16;28.30;99.90
2465;DHT22;1244;54.326;10.074;2022-07-18T14:14:42;27.50;99.90
2465;DHT22;1244;54.326;10.074;2022-07-18T14:17:08;27.60;99.90
2465;DHT22;1244;54.326;10.074;2022-07-18T14:19:34;27.70;99.90
2465;DHT22;1244;54.326;10.074;2022-07-18T14:22:02;27.80;99.90
2465;DHT22;1244;54.326;10.074;2022-07-18T14:24:28;27.90;99.90
2465;DHT22;1244;54.326;10.074;2022-07-18T14:26:54;27.90;99.90
2465;DHT22;1244;54.326;10.074;2022-07-18T14:29:19;27.60;99.90
2465;DHT22;1244;54.326;10.074;2022-07-18T14:31:45;28.10;99.90
2465;DHT22;1244;54.326;10.074;2022-07-18T14:34:10;28.60;99.90
2465;DHT22;1244;54.326;10.074;2022-07-18T14:36:36;28.30;99.90
2465;DHT22;1244;54.326;10.074;2022-07-18T14:39:01;28.30;99.90
2465;DHT22;1244;54.326;10.074;2022-07-18T14:41:27;27.90;99.90
2465;DHT22;1244;54.326;10.074;2022-07-18T14:43:52;27.50;99.90
2465;DHT22;1244;54.326;10.074;2022-07-18T14:46:18;27.80;99.90
2465;DHT22;1244;54.326;10.074;2022-07-18T14:48:43;28.40;99.90
2465;DHT22;1244;54.326;10.074;2022-07-18T14:51:09;28.80;99.90
2465;DHT22;1244;54.326;10.074;2022-07-18T14:53:34;28.80;99.90
2465;DHT22;1244;54.326;10.074;2022-07-18T14:56:00;28.80;99.90
2465;DHT22;1244;54.326;10.074;2022-07-18T14:58:25;28.70;99.90
2465;DHT22;1244;54.326;10.074;2022-07-18T15:00:51;29.10;99.90
2465;DHT22;1244;54.326;10.074;2022-07-18T15:03:16;29.00;99.90
2465;DHT22;1244;54.326;10.074;2022-07-18T15:05:42;28.70;99.90
2465;DHT22;1244;54.326;10.074;2022-07-18T15:08:07;28.60;99.90
2465;DHT22;1244;54.326;10.074;2022-07-18T15:10:33;28.40;99.90
2465;DHT22;1244;54.326;10.074;2022-07-18T15:12:58;28.10;99.90
2465;DHT22;1244;54.326;10.074;2022-07-18T15:15:24;27.90;99.90
2465;DHT22;1244;54.326;10.074;2022-07-18T15:17:50;27.90;99.90
2465;DHT22;1244;54.326;10.074;2022-07-18T15:20:16;27.90;99.90
2465;DHT22;1244;54.326;10.074;2022-07-18T15:22:43;27.80;99.90
2465;DHT22;1244;54.326;10.074;2022-07-18T15:25:09;27.70;99.90
2465;DHT22;1244;54.326;10.074;2022-07-18T15:27:34;27.80;99.90
2465;DHT22;1244;54.326;10.074;2022-07-18T15:30:00;27.60;99.90
2465;DHT22;1244;54.326;10.074;2022-07-18T15:32:26;27.40;99.90
2465;DHT22;1244;54.326;10.074;2022-07-18T15:34:51;27.50;99.90
2465;DHT22;1244;54.326;10.074;2022-07-18T15:37:17;27.50;99.90
2465;DHT22;1244;54.326;10.074;2022-07-18T15:39:43;27.60;99.90
2465;DHT22;1244;54.326;10.074;2022-07-18T15:42:09;27.40;99.90
2465;DHT22;1244;54.326;10.074;2022-07-18T15:44:34;27.40;99.90
2465;DHT22;1244;54.326;10.074;2022-07-18T15:47:04;27.30;99.90
2465;DHT22;1244;54.326;10.074;2022-07-18T15:49:35;27.20;99.90
2465;DHT22;1244;54.326;10.074;2022-07-18T15:52:01;27.10;99.90
2465;DHT22;1244;54.326;10.074;2022-07-18T15:54:28;26.80;99.90
2465;DHT22;1244;54.326;10.074;2022-07-18T15:56:53;26.80;99.90
2465;DHT22;1244;54.326;10.074;2022-07-18T15:59:19;26.70;99.90
2465;DHT22;1244;54.326;10.074;2022-07-18T16:01:44;26.60;99.90
2465;DHT22;1244;54.326;10.074;2022-07-18T16:04:10;26.50;99.90
2465;DHT22;1244;54.326;10.074;2022-07-18T16:06:35;26.40;99.90
2465;DHT22;1244;54.326;10.074;2022-07-18T16:09:01;26.30;99.90
2465;DHT22;1244;54.326;10.074;2022-07-18T16:11:27;26.30;99.90